Time;durP1;ratioP1;P1;durP2;ratioP2;P2;SDS_P1;SDS_P2;PMS_P1;PMS_P2;Temp;Humidity;BMP_temperature;BMP_pressure;BME280_temperature;BME280_humidity;BME280_pressure;Samples;Min_cycle;Max_cycle;Signal;HPM_P1;HPM_P2
2021/09/12 00:01:29;;;;;;;1999.90;999.90;;;;;;;11.59;67.96;95655.91;5029529;28;20197;-70
2021/09/12 00:03:56;;;;;;;1999.90;999.90;;;;;;;11.54;67.99;95663.06;5029524;28;20206;-70
2021/09/12 00:06:24;;;;;;;1999.90;999.90;;;;;;;11.30;68.51;95665.16;5031189;28;20713;-71
2021/09/12 00:08:51;;;;;;;1999.90;999.90;;;;;;;10.93;70.01;95664.34;5049185;28;20201;-69
2021/09/12 00:11:18;;;;;;;1999.90;999.90;;;;;;;10.82;70.80;95663.00;5049371;28;20286;-69
2021/09/12 00:13:45;;;;;;;1999.90;999.90;;;;;;;10.81;71.52;95658.84;5048911;28;20203;-71
2021/09/12 00:16:13;;;;;;;1999.90;999.90;;;;;;;10.83;71.92;95659.34;5049439;28;20205;-70
2021/09/12 00:18:42;;;;;;;1999.90;999.90;;;;;;;10.60;71.85;95665.53;5048821;28;20201;-70
2021/09/12 00:21:09;;;;;;;1999.90;999.90;;;;;;;10.22;73.36;95665.66;5049298;28;20201;-70
2021/09/12 00:23:36;;;;;;;1999.90;999.90;;;;;;;10.14;73.60;95668.91;5048963;28;20235;-70
2021/09/12 00:26:05;;;;;;;1999.90;999.90;;;;;;;10.07;74.19;95671.06;5048887;28;20684;-70
2021/09/12 00:28:32;;;;;;;1999.90;999.90;;;;;;;9.80;76.62;95669.19;5049027;28;20578;-70
2021/09/12 00:30:59;;;;;;;1999.90;999.90;;;;;;;9.85;77.28;95670.94;5048686;28;20802;-70
2021/09/12 00:33:30;;;;;;;1999.90;999.90;;;;;;;9.90;76.65;95674.22;5048704;28;20197;-70
2021/09/12 00:35:59;;;;;;;1999.90;999.90;;;;;;;10.00;76.01;95678.47;5048762;28;20189;-70
2021/09/12 00:38:27;;;;;;;1999.90;999.90;;;;;;;9.99;76.06;95673.56;5048665;28;20193;-70
2021/09/12 00:40:57;;;;;;;1999.90;999.90;;;;;;;9.98;76.23;95683.16;5048776;28;20231;-70
2021/09/12 00:43:25;;;;;;;1999.90;999.90;;;;;;;9.99;75.95;95679.53;5048630;28;20185;-70
2021/09/12 00:45:54;;;;;;;1999.90;999.90;;;;;;;10.05;75.84;95686.19;5048618;28;20193;-71
2021/09/12 00:48:22;;;;;;;1999.90;999.90;;;;;;;10.05;75.79;95686.19;5048674;28;20596;-70
2021/09/12 00:50:50;;;;;;;1999.90;999.90;;;;;;;10.03;74.88;95679.72;5048533;28;20225;-70
2021/09/12 00:53:20;;;;;;;1999.90;999.90;;;;;;;10.11;75.12;95674.63;5048545;28;20193;-70
2021/09/12 00:55:51;;;;;;;1999.90;999.90;;;;;;;10.10;76.43;95677.53;5048648;28;20192;-70
2021/09/12 00:58:19;;;;;;;1999.90;999.90;;;;;;;10.03;77.01;95671.94;5048673;28;20189;-70
2021/09/12 01:00:47;;;;;;;1999.90;999.90;;;;;;;9.90;77.82;95678.63;5048503;28;20280;-69
2021/09/12 01:03:14;;;;;;;1999.90;999.90;;;;;;;9.82;78.46;95687.06;5050850;28;20202;-70
2021/09/12 01:05:43;;;;;;;1999.90;999.90;;;;;;;9.75;78.88;95682.25;5049266;28;20197;-69
2021/09/12 01:08:10;;;;;;;1999.90;999.90;;;;;;;9.74;78.72;95685.13;5032386;28;20205;-69
2021/09/12 01:10:40;;;;;;;1999.90;999.90;;;;;;;9.60;79.53;95684.28;5032268;28;20316;-69
2021/09/12 01:13:07;;;;;;;1999.90;999.90;;;;;;;9.63;79.39;95681.88;5032439;28;20639;-70
2021/09/12 01:15:35;;;;;;;1999.90;999.90;;;;;;;9.70;79.60;95681.53;5032559;28;20198;-69
2021/09/12 01:18:02;;;;;;;1999.90;999.90;;;;;;;9.62;79.91;95679.56;5032205;28;20197;-69
2021/09/12 01:20:29;;;;;;;1999.90;999.90;;;;;;;9.51;80.40;95677.13;5032424;28;20224;-69
2021/09/12 01:22:57;;;;;;;1999.90;999.90;;;;;;;9.23;81.10;95674.69;5032149;28;20255;-70
2021/09/12 01:25:25;;;;;;;1999.90;999.90;;;;;;;9.22;80.89;95680.91;5032107;28;20201;-69
2021/09/12 01:27:52;;;;;;;1999.90;999.90;;;;;;;9.18;81.34;95682.50;5032073;28;20194;-69
2021/09/12 01:30:19;;;;;;;1999.90;999.90;;;;;;;9.20;81.62;95680.44;5031784;28;20221;-68
2021/09/12 01:32:47;;;;;;;1999.90;999.90;;;;;;;9.34;80.81;95686.47;5032061;28;20202;-69
2021/09/12 01:35:14;;;;;;;1999.90;999.90;;;;;;;9.32;80.92;95683.38;5032293;28;20284;-70
2021/09/12 01:37:41;;;;;;;1999.90;999.90;;;;;;;9.30;80.87;95686.25;5031860;28;20202;-70
2021/09/12 01:40:10;;;;;;;1999.90;999.90;;;;;;;9.41;80.24;95677.25;5031645;28;20190;-69
2021/09/12 01:42:38;;;;;;;1999.90;999.90;;;;;;;9.51;80.48;95681.56;5031875;28;20688;-70
2021/09/12 01:45:07;;;;;;;1999.90;999.90;;;;;;;9.65;79.86;95677.22;5031804;28;20194;-69
2021/09/12 01:47:35;;;;;;;1999.90;999.90;;;;;;;9.74;79.49;95679.94;5031661;28;20670;-70
2021/09/12 01:50:02;;;;;;;1999.90;999.90;;;;;;;9.80;78.50;95669.19;5031586;28;20202;-70
2021/09/12 01:52:29;;;;;;;1999.90;999.90;;;;;;;9.89;78.02;95671.91;5032033;28;20209;-69
2021/09/12 01:54:56;;;;;;;1999.90;999.90;;;;;;;9.90;77.91;95673.44;5031421;28;20670;-70
2021/09/12 01:57:23;;;;;;;1999.90;999.90;;;;;;;9.74;77.39;95674.72;5031472;28;20582;-70
2021/09/12 01:59:52;;;;;;;1999.90;999.90;;;;;;;9.65;77.40;95679.81;5031934;28;20229;-71
2021/09/12 02:02:19;;;;;;;1999.90;999.90;;;;;;;9.58;78.23;95683.78;5027930;28;20202;-70
2021/09/12 02:04:46;;;;;;;1999.90;999.90;;;;;;;9.33;79.23;95680.50;5028579;28;20197;-70
2021/09/12 02:07:13;;;;;;;1999.90;999.90;;;;;;;9.13;79.65;95680.75;5030223;28;20336;-70
2021/09/12 02:09:41;;;;;;;1999.90;999.90;;;;;;;9.02;80.03;95679.34;5030608;28;20669;-71
2021/09/12 02:12:08;;;;;;;1999.90;999.90;;;;;;;8.95;79.73;95684.09;5031378;28;20222;-71
2021/09/12 02:14:35;;;;;;;1999.90;999.90;;;;;;;8.85;80.29;95679.03;5030032;28;20197;-70
2021/09/12 02:17:04;;;;;;;1999.90;999.90;;;;;;;8.79;81.16;95680.16;5031248;28;20201;-70
2021/09/12 02:19:32;;;;;;;1999.90;999.90;;;;;;;8.81;81.34;95678.06;5031356;28;20216;-70
2021/09/12 02:21:59;;;;;;;1999.90;999.90;;;;;;;8.58;82.11;95682.97;5031007;28;20204;-70
2021/09/12 02:24:26;;;;;;;1999.90;999.90;;;;;;;8.66;81.58;95676.41;5031166;28;20198;-69
2021/09/12 02:26:53;;;;;;;1999.90;999.90;;;;;;;8.51;82.09;95679.16;5031307;28;20209;-69
2021/09/12 02:29:20;;;;;;;1999.90;999.90;;;;;;;8.41;82.35;95680.03;5030894;28;20209;-69
2021/09/12 02:31:47;;;;;;;1999.90;999.90;;;;;;;8.38;82.73;95680.56;5030848;28;20246;-69
2021/09/12 02:34:16;;;;;;;1999.90;999.90;;;;;;;8.21;82.99;95680.22;5030706;28;20678;-70
2021/09/12 02:36:43;;;;;;;1999.90;999.90;;;;;;;8.35;83.24;95686.31;5030628;28;20697;-70
2021/09/12 02:39:10;;;;;;;1999.90;999.90;;;;;;;8.40;82.42;95682.91;5030960;28;20198;-69
2021/09/12 02:41:37;;;;;;;1999.90;999.90;;;;;;;8.44;82.76;95676.13;5031066;28;20287;-69
2021/09/12 02:44:05;;;;;;;1999.90;999.90;;;;;;;8.49;82.68;95674.25;5030576;28;20404;-70
2021/09/12 02:46:32;;;;;;;1999.90;999.90;;;;;;;8.49;82.76;95682.03;5030852;28;20193;-71
2021/09/12 02:49:00;;;;;;;1999.90;999.90;;;;;;;8.60;82.92;95683.47;5030567;28;20206;-71
2021/09/12 02:51:28;;;;;;;1999.90;999.90;;;;;;;8.64;82.55;95675.91;5030430;28;20705;-68
2021/09/12 02:53:55;;;;;;;1999.90;999.90;;;;;;;8.69;82.69;95680.25;5030516;28;20709;-70
2021/09/12 02:56:22;;;;;;;1999.90;999.90;;;;;;;8.68;83.58;95671.72;5030811;28;20201;-71
2021/09/12 02:58:49;;;;;;;1999.90;999.90;;;;;;;8.72;83.44;95690.09;5030401;28;20194;-70
2021/09/12 03:01:16;;;;;;;1999.90;999.90;;;;;;;8.66;83.34;95681.59;5030482;28;20194;-69
2021/09/12 03:03:44;;;;;;;1999.90;999.90;;;;;;;8.63;83.77;95688.09;5030315;28;20198;-69
2021/09/12 03:06:11;;;;;;;1999.90;999.90;;;;;;;8.55;84.53;95680.94;5030215;28;20295;-68
2021/09/12 03:08:39;;;;;;;1999.90;999.90;;;;;;;8.63;84.32;95682.13;5030221;28;20664;-69
2021/09/12 03:11:06;;;;;;;1999.90;999.90;;;;;;;8.57;84.50;95678.81;5030236;28;20316;-70
2021/09/12 03:13:35;;;;;;;1999.90;999.90;;;;;;;8.48;84.96;95679.69;5030165;28;20259;-70
2021/09/12 03:16:02;;;;;;;1999.90;999.90;;;;;;;8.50;84.67;95678.38;5030061;28;20198;-70
2021/09/12 03:18:29;;;;;;;1999.90;999.90;;;;;;;8.59;84.64;95666.38;5030224;28;20202;-70
2021/09/12 03:20:56;;;;;;;1999.90;999.90;;;;;;;8.62;84.08;95672.81;5030396;28;20205;-70
2021/09/12 03:23:23;;;;;;;1999.90;999.90;;;;;;;8.52;83.62;95671.09;5030165;28;20625;-70
2021/09/12 03:25:52;;;;;;;1999.90;999.90;;;;;;;8.48;83.87;95680.47;5029618;28;20556;-69
2021/09/12 03:28:19;;;;;;;1999.90;999.90;;;;;;;8.47;83.86;95678.16;5030147;28;20255;-70
2021/09/12 03:30:46;;;;;;;1999.90;999.90;;;;;;;8.23;81.47;95691.03;5029716;28;20264;-70
2021/09/12 03:33:14;;;;;;;1999.90;999.90;;;;;;;7.90;83.15;95681.50;5030187;28;20201;-71
2021/09/12 03:35:42;;;;;;;1999.90;999.90;;;;;;;7.88;84.84;95681.75;5029854;28;20210;-71
2021/09/12 03:38:10;;;;;;;1999.90;999.90;;;;;;;7.82;86.13;95682.84;5029452;28;20229;-69
2021/09/12 03:40:38;;;;;;;1999.90;999.90;;;;;;;7.88;86.05;95681.00;5029586;28;20678;-69
2021/09/12 03:43:07;;;;;;;1999.90;999.90;;;;;;;7.76;86.60;95682.13;5029473;28;20615;-70
2021/09/12 03:45:34;;;;;;;1999.90;999.90;;;;;;;7.72;86.41;95680.34;5029548;28;20240;-70
2021/09/12 03:48:02;;;;;;;1999.90;999.90;;;;;;;7.83;86.11;95686.19;5029526;28;20202;-70
2021/09/12 03:50:29;;;;;;;1999.90;999.90;;;;;;;7.62;86.58;95683.75;5029166;28;20259;-70
2021/09/12 03:52:57;;;;;;;1999.90;999.90;;;;;;;7.74;86.60;95680.84;5029627;28;20194;-71
2021/09/12 03:55:24;;;;;;;1999.90;999.90;;;;;;;7.83;86.51;95679.22;5029580;28;20281;-70
2021/09/12 03:57:52;;;;;;;1999.90;999.90;;;;;;;7.83;86.32;95675.84;5029328;28;20702;-70
2021/09/12 04:00:20;;;;;;;1999.90;999.90;;;;;;;7.87;86.54;95679.47;5029167;28;20205;-70
2021/09/12 04:02:48;;;;;;;1999.90;999.90;;;;;;;7.88;86.38;95683.56;5029201;28;20245;-70
2021/09/12 04:05:15;;;;;;;1999.90;999.90;;;;;;;7.91;86.77;95696.00;5029200;28;20944;-68
2021/09/12 04:07:42;;;;;;;1999.90;999.90;;;;;;;7.92;86.67;95690.53;5028868;28;20229;-69
2021/09/12 04:10:10;;;;;;;1999.90;999.90;;;;;;;7.99;86.23;95703.94;5029059;28;20202;-69
2021/09/12 04:12:37;;;;;;;1999.90;999.90;;;;;;;7.99;86.29;95709.09;5029393;28;20221;-72
2021/09/12 04:15:06;;;;;;;1999.90;999.90;;;;;;;7.93;86.36;95710.19;5029123;28;20260;-69
2021/09/12 04:17:35;;;;;;;1999.90;999.90;;;;;;;7.97;86.28;95713.03;5029156;28;20302;-70
2021/09/12 04:20:02;;;;;;;1999.90;999.90;;;;;;;7.98;85.89;95710.16;5029184;28;20288;-70
2021/09/12 04:22:29;;;;;;;1999.90;999.90;;;;;;;7.90;86.12;95712.53;5029034;28;20275;-69
2021/09/12 04:24:56;;;;;;;1999.90;999.90;;;;;;;7.89;86.34;95718.75;5029108;28;20216;-70
2021/09/12 04:27:23;;;;;;;1999.90;999.90;;;;;;;7.88;86.39;95722.38;5029158;28;20205;-70
2021/09/12 04:29:50;;;;;;;1999.90;999.90;;;;;;;7.94;86.69;95710.97;5029334;28;20221;-70
2021/09/12 04:32:18;;;;;;;1999.90;999.90;;;;;;;8.02;86.90;95716.31;5028922;28;20657;-70
2021/09/12 04:34:47;;;;;;;1999.90;999.90;;;;;;;8.01;87.06;95712.22;5028850;28;20196;-70
2021/09/12 04:37:15;;;;;;;1999.90;999.90;;;;;;;8.11;87.48;95711.34;5029936;28;20205;-70
2021/09/12 04:39:43;;;;;;;1999.90;999.90;;;;;;;8.30;86.97;95712.25;5033038;28;20215;-70
2021/09/12 04:42:10;;;;;;;1999.90;999.90;;;;;;;8.44;86.52;95709.78;5033116;28;20267;-71
2021/09/12 04:44:39;;;;;;;1999.90;999.90;;;;;;;8.54;86.59;95704.50;5033097;28;20205;-71
2021/09/12 04:47:06;;;;;;;1999.90;999.90;;;;;;;8.66;86.97;95709.31;5032851;28;20292;-70
2021/09/12 04:49:33;;;;;;;1999.90;999.90;;;;;;;8.64;87.25;95702.59;5033218;28;20205;-71
2021/09/12 04:52:02;;;;;;;1999.90;999.90;;;;;;;8.70;88.15;95716.25;5032883;28;20232;-70
2021/09/12 04:54:29;;;;;;;1999.90;999.90;;;;;;;8.82;88.73;95708.09;5032988;28;20273;-70
2021/09/12 04:56:56;;;;;;;1999.90;999.90;;;;;;;9.01;89.10;95714.09;5032689;28;20199;-70
2021/09/12 04:59:23;;;;;;;1999.90;999.90;;;;;;;9.05;90.26;95709.91;5032679;28;20658;-70
2021/09/12 05:01:50;;;;;;;1999.90;999.90;;;;;;;9.17;90.67;95712.09;5032939;28;20194;-70
2021/09/12 05:04:18;;;;;;;1999.90;999.90;;;;;;;9.26;91.09;95711.22;5032451;28;20206;-71
2021/09/12 05:06:45;;;;;;;1999.90;999.90;;;;;;;9.40;90.67;95717.25;5032165;28;20291;-70
2021/09/12 05:09:13;;;;;;;1999.90;999.90;;;;;;;9.44;91.45;95718.22;5032310;28;20198;-70
2021/09/12 05:11:40;;;;;;;1999.90;999.90;;;;;;;9.57;91.81;95713.38;5032363;28;20222;-70
2021/09/12 05:14:09;;;;;;;1999.90;999.90;;;;;;;9.66;91.66;95719.50;5032504;28;20210;-69
2021/09/12 05:16:37;;;;;;;1999.90;999.90;;;;;;;9.57;93.26;95721.94;5031958;28;20304;-71
2021/09/12 05:19:04;;;;;;;1999.90;999.90;;;;;;;9.69;93.27;95730.06;5031982;28;20206;-70
2021/09/12 05:21:31;;;;;;;1999.90;999.90;;;;;;;9.90;92.01;95727.97;5032144;28;20255;-69
2021/09/12 05:23:58;;;;;;;1999.90;999.90;;;;;;;10.01;89.47;95736.38;5031978;28;20654;-69
2021/09/12 05:26:27;;;;;;;1999.90;999.90;;;;;;;10.29;88.86;95740.63;5032010;28;20198;-70
2021/09/12 05:28:54;;;;;;;1999.90;999.90;;;;;;;11.09;86.21;95746.22;5032049;28;20242;-70
2021/09/12 05:31:21;;;;;;;1999.90;999.90;;;;;;;12.05;80.19;95735.63;5031843;28;20226;-70
2021/09/12 05:33:48;;;;;;;1999.90;999.90;;;;;;;12.90;76.08;95740.50;5031795;28;20212;-69
2021/09/12 05:36:15;;;;;;;1999.90;999.90;;;;;;;13.14;73.44;95739.41;5031520;28;20198;-69
2021/09/12 05:38:42;;;;;;;1999.90;999.90;;;;;;;12.77;72.95;95732.78;5031807;28;20198;-69
2021/09/12 05:41:10;;;;;;;1999.90;999.90;;;;;;;12.83;73.59;95744.63;5031885;28;20201;-69
2021/09/12 05:43:38;;;;;;;1999.90;999.90;;;;;;;12.62;73.96;95739.16;5031922;28;20306;-70
2021/09/12 05:46:05;;;;;;;1999.90;999.90;;;;;;;12.53;74.21;95740.97;5031930;28;20288;-69
2021/09/12 05:48:33;;;;;;;1999.90;999.90;;;;;;;12.65;73.35;95735.94;5031623;28;20311;-71
2021/09/12 05:51:00;;;;;;;1999.90;999.90;;;;;;;12.86;73.12;95734.34;5031923;28;20205;-70
2021/09/12 05:53:27;;;;;;;1999.90;999.90;;;;;;;13.07;72.38;95739.03;5031615;28;20198;-71
2021/09/12 05:55:54;;;;;;;1999.90;999.90;;;;;;;13.14;71.21;95742.03;5031487;28;20202;-70
2021/09/12 05:58:22;;;;;;;1999.90;999.90;;;;;;;13.15;71.70;95741.69;5031550;28;20289;-71
2021/09/12 06:00:50;;;;;;;1999.90;999.90;;;;;;;13.32;70.93;95739.13;5031403;28;20201;-71
2021/09/12 06:03:17;;;;;;;1999.90;999.90;;;;;;;13.61;70.62;95732.56;5031465;28;20193;-70
2021/09/12 06:05:45;;;;;;;1999.90;999.90;;;;;;;13.70;70.57;95731.50;5031320;28;20198;-69
2021/09/12 06:08:12;;;;;;;1999.90;999.90;;;;;;;14.02;68.58;95732.13;5031616;28;21053;-70
2021/09/12 06:10:39;;;;;;;1999.90;999.90;;;;;;;14.14;67.27;95727.81;5031332;28;20246;-70
2021/09/12 06:13:06;;;;;;;1999.90;999.90;;;;;;;14.33;67.42;95726.72;5031219;28;20226;-70
2021/09/12 06:15:34;;;;;;;1999.90;999.90;;;;;;;14.22;66.75;95723.66;5031136;28;20292;-70
2021/09/12 06:18:02;;;;;;;1999.90;999.90;;;;;;;14.27;67.08;95725.34;5031207;28;20280;-70
2021/09/12 06:20:30;;;;;;;1999.90;999.90;;;;;;;14.23;67.55;95722.56;5031482;28;20194;-70
2021/09/12 06:22:57;;;;;;;1999.90;999.90;;;;;;;14.35;67.26;95725.31;5031031;28;20202;-71
2021/09/12 06:25:24;;;;;;;1999.90;999.90;;;;;;;14.75;65.22;95727.69;5031088;28;20206;-71
2021/09/12 06:27:51;;;;;;;1999.90;999.90;;;;;;;14.91;65.43;95728.72;5031414;28;20251;-70
2021/09/12 06:30:19;;;;;;;1999.90;999.90;;;;;;;15.12;64.88;95726.94;5031105;28;20674;-69
2021/09/12 06:32:46;;;;;;;1999.90;999.90;;;;;;;15.24;64.35;95734.84;5031189;28;20260;-70
2021/09/12 06:35:15;;;;;;;1999.90;999.90;;;;;;;15.28;64.00;95735.00;5031266;28;20200;-70
2021/09/12 06:37:42;;;;;;;1999.90;999.90;;;;;;;15.41;63.99;95729.53;5030880;28;20670;-70
2021/09/12 06:40:12;;;;;;;1999.90;999.90;;;;;;;15.55;63.46;95725.94;5030643;28;20202;-69
2021/09/12 06:42:39;;;;;;;1999.90;999.90;;;;;;;15.64;62.42;95721.41;5030987;28;20208;-68
2021/09/12 06:45:08;;;;;;;1999.90;999.90;;;;;;;15.89;62.04;95728.28;5030761;28;20393;-69
2021/09/12 06:47:35;;;;;;;1999.90;999.90;;;;;;;16.12;61.55;95726.88;5030667;28;20198;-69
2021/09/12 06:50:03;;;;;;;1999.90;999.90;;;;;;;16.49;60.12;95730.38;5030790;28;20622;-71
2021/09/12 06:52:32;;;;;;;1999.90;999.90;;;;;;;16.55;58.72;95736.94;5030659;28;20314;-70
2021/09/12 06:54:59;;;;;;;1999.90;999.90;;;;;;;16.76;57.84;95729.81;5030668;28;20208;-71
2021/09/12 06:57:26;;;;;;;1999.90;999.90;;;;;;;17.06;56.32;95727.75;5030640;28;20684;-71
2021/09/12 06:59:53;;;;;;;1999.90;999.90;;;;;;;17.32;56.69;95730.03;5030003;28;20223;-71
2021/09/12 07:02:20;;;;;;;1999.90;999.90;;;;;;;17.50;55.89;95735.81;5030422;28;20692;-69
2021/09/12 07:04:48;;;;;;;1999.90;999.90;;;;;;;17.30;55.21;95732.22;5030459;28;20297;-69
2021/09/12 07:07:15;;;;;;;1999.90;999.90;;;;;;;17.64;55.25;95731.75;5030043;28;20665;-70
2021/09/12 07:09:44;;;;;;;1999.90;999.90;;;;;;;17.55;54.53;95731.09;5030550;28;20209;-71
2021/09/12 07:12:11;;;;;;;1999.90;999.90;;;;;;;17.85;53.26;95730.84;5030111;28;20272;-69
2021/09/12 07:14:38;;;;;;;1999.90;999.90;;;;;;;17.96;52.36;95730.03;5030084;28;20208;-69
2021/09/12 07:17:06;;;;;;;1999.90;999.90;;;;;;;17.94;52.33;95723.56;5029975;28;20206;-71
2021/09/12 07:19:33;;;;;;;1999.90;999.90;;;;;;;18.30;52.40;95728.69;5030222;28;20213;-70
2021/09/12 07:22:00;;;;;;;1999.90;999.90;;;;;;;18.38;49.74;95727.78;5030288;28;20208;-71
2021/09/12 07:24:27;;;;;;;1999.90;999.90;;;;;;;18.58;50.14;95733.94;5029880;28;20216;-70
2021/09/12 07:26:56;;;;;;;1999.90;999.90;;;;;;;19.01;47.33;95732.38;5030291;28;20214;-70
2021/09/12 07:29:24;;;;;;;1999.90;999.90;;;;;;;19.25;45.78;95725.03;5029847;28;20242;-70
2021/09/12 07:31:51;;;;;;;1999.90;999.90;;;;;;;19.28;44.36;95731.47;5029701;28;20687;-69
2021/09/12 07:34:18;;;;;;;1999.90;999.90;;;;;;;19.20;44.61;95730.56;5029608;28;20581;-69
2021/09/12 07:36:46;;;;;;;1999.90;999.90;;;;;;;19.41;44.51;95729.50;5029615;28;20210;-70
2021/09/12 07:39:13;;;;;;;1999.90;999.90;;;;;;;19.45;44.28;95727.75;5029542;28;20237;-69
2021/09/12 07:41:41;;;;;;;1999.90;999.90;;;;;;;19.27;44.61;95722.84;5029225;28;20234;-70
2021/09/12 07:44:09;;;;;;;1999.90;999.90;;;;;;;19.44;45.10;95713.00;5029737;28;20729;-69
2021/09/12 07:46:36;;;;;;;1999.90;999.90;;;;;;;19.74;45.59;95712.19;5029576;28;20209;-70
2021/09/12 07:49:04;;;;;;;1999.90;999.90;;;;;;;19.31;46.21;95715.00;5029491;28;20263;-70
2021/09/12 07:51:31;;;;;;;1999.90;999.90;;;;;;;19.35;45.70;95713.19;5029762;28;20393;-70
2021/09/12 07:53:58;;;;;;;1999.90;999.90;;;;;;;19.43;45.16;95717.50;5029309;28;20236;-70
2021/09/12 07:56:25;;;;;;;1999.90;999.90;;;;;;;19.55;45.39;95701.59;5029487;28;20208;-70
2021/09/12 07:58:52;;;;;;;1999.90;999.90;;;;;;;20.11;44.11;95701.97;5029248;28;20202;-69
2021/09/12 08:01:21;;;;;;;1999.90;999.90;;;;;;;20.32;43.39;95703.50;5029564;28;20213;-70
2021/09/12 08:03:48;;;;;;;1999.90;999.90;;;;;;;20.44;44.10;95695.41;5029646;28;20198;-68
2021/09/12 08:06:15;;;;;;;1999.90;999.90;;;;;;;20.60;43.54;95694.22;5028844;28;20744;-69
2021/09/12 08:08:42;;;;;;;1999.90;999.90;;;;;;;20.82;43.25;95694.56;5029253;28;20651;-70
2021/09/12 08:11:09;;;;;;;1999.90;999.90;;;;;;;20.59;42.93;95686.63;5028944;28;20209;-69
2021/09/12 08:13:37;;;;;;;1999.90;999.90;;;;;;;20.76;42.25;95685.41;5028987;28;20230;-70
2021/09/12 08:16:04;;;;;;;1999.90;999.90;;;;;;;20.99;41.35;95678.22;5029036;28;20292;-70
2021/09/12 08:18:33;;;;;;;1999.90;999.90;;;;;;;21.11;41.56;95685.19;5029008;28;20202;-70
2021/09/12 08:21:00;;;;;;;1999.90;999.90;;;;;;;20.99;41.95;95683.50;5028862;28;20208;-69
2021/09/12 08:23:27;;;;;;;1999.90;999.90;;;;;;;21.15;42.62;95676.22;5028469;28;20616;-69
2021/09/12 08:25:55;;;;;;;1999.90;999.90;;;;;;;21.38;41.28;95689.38;5009265;28;20256;-70
2021/09/12 08:28:22;;;;;;;1999.90;999.90;;;;;;;21.51;41.64;95684.63;5009366;28;20194;-69
2021/09/12 08:30:49;;;;;;;1999.90;999.90;;;;;;;21.39;42.00;95686.38;5009112;28;20198;-69
2021/09/12 08:33:18;;;;;;;1999.90;999.90;;;;;;;21.33;41.62;95677.22;5008973;28;20780;-69
2021/09/12 08:35:46;;;;;;;1999.90;999.90;;;;;;;21.68;40.75;95676.16;5009180;28;20194;-68
2021/09/12 08:38:14;;;;;;;1999.90;999.90;;;;;;;21.77;41.87;95663.41;5009595;28;20202;-68
2021/09/12 08:40:41;;;;;;;1999.90;999.90;;;;;;;21.81;41.93;95661.59;5009202;28;20249;-69
2021/09/12 08:43:09;;;;;;;1999.90;999.90;;;;;;;21.83;42.25;95665.38;5009063;28;20198;-69
2021/09/12 08:45:37;;;;;;;1999.90;999.90;;;;;;;21.95;41.61;95669.72;5008899;28;20203;-70
2021/09/12 08:48:05;;;;;;;1999.90;999.90;;;;;;;22.20;41.46;95665.44;5008843;28;20246;-71
2021/09/12 08:50:32;;;;;;;1999.90;999.90;;;;;;;22.51;40.06;95660.81;5009131;28;20203;-71
2021/09/12 08:53:01;;;;;;;1999.90;999.90;;;;;;;22.82;40.58;95648.94;5008886;28;20226;-71
2021/09/12 08:55:28;;;;;;;1999.90;999.90;;;;;;;23.22;39.06;95648.84;5008962;28;20272;-70
2021/09/12 08:57:58;;;;;;;1999.90;999.90;;;;;;;23.00;39.46;95640.03;5008912;28;20204;-71
2021/09/12 09:00:26;;;;;;;1999.90;999.90;;;;;;;22.95;39.70;95640.38;5008856;28;20206;-71
2021/09/12 09:02:59;;;;;;;1999.90;999.90;;;;;;;23.42;39.44;95633.41;5009029;28;20746;-71
2021/09/12 09:05:32;;;;;;;1999.90;999.90;;;;;;;23.48;37.39;95635.38;5009805;28;20655;-70
2021/09/12 09:08:09;;;;;;;1999.90;999.90;;;;;;;23.48;37.16;95629.31;5028375;28;20256;-70
2021/09/12 09:10:41;;;;;;;1999.90;999.90;;;;;;;23.44;37.35;95628.50;5028629;28;20221;-70
2021/09/12 09:13:26;;;;;;;1999.90;999.90;;;;;;;23.59;37.01;95630.13;5028513;28;20222;-70
2021/09/12 09:15:54;;;;;;;1999.90;999.90;;;;;;;23.50;37.41;95624.41;5028869;28;20312;-71
2021/09/12 09:18:31;;;;;;;1999.90;999.90;;;;;;;23.61;38.29;95625.22;5028620;28;20756;-70
2021/09/12 09:20:59;;;;;;;1999.90;999.90;;;;;;;23.63;38.67;95622.16;5028471;28;20225;-70
2021/09/12 09:23:28;;;;;;;1999.90;999.90;;;;;;;23.81;38.39;95615.03;5029857;28;20324;-69
2021/09/12 09:25:55;;;;;;;1999.90;999.90;;;;;;;23.79;37.90;95615.41;5032402;28;20201;-70
2021/09/12 09:28:22;;;;;;;1999.90;999.90;;;;;;;24.22;36.72;95615.53;5032414;28;20260;-70
2021/09/12 09:30:53;;;;;;;1999.90;999.90;;;;;;;24.65;37.77;95614.41;5032128;28;20224;-70
2021/09/12 09:33:23;;;;;;;1999.90;999.90;;;;;;;24.80;34.68;95609.84;5032063;28;20205;-70
2021/09/12 09:35:56;;;;;;;1999.90;999.90;;;;;;;24.78;35.68;95602.25;5032279;28;20344;-69
2021/09/12 09:38:25;;;;;;;1999.90;999.90;;;;;;;24.96;36.12;95602.25;5032115;28;20186;-69
2021/09/12 09:41:15;;;;;;;1999.90;999.90;;;;;;;25.01;35.56;95598.44;5032177;28;20549;-69
2021/09/12 09:43:46;;;;;;;1999.90;999.90;;;;;;;25.18;35.72;95598.41;5018391;28;20206;-69
2021/09/12 09:46:33;;;;;;;1999.90;999.90;;;;;;;25.43;33.33;95593.00;5031634;28;20706;-72
2021/09/12 09:49:18;;;;;;;1999.90;999.90;;;;;;;25.28;33.96;95591.53;5032004;28;20620;-71
2021/09/12 09:51:47;;;;;;;1999.90;999.90;;;;;;;25.63;32.52;95593.31;5031988;28;20194;-70
2021/09/12 09:54:16;;;;;;;1999.90;999.90;;;;;;;25.55;32.48;95589.94;5031519;28;20225;-71
2021/09/12 09:56:46;;;;;;;1999.90;999.90;;;;;;;25.34;31.98;95584.69;5031916;28;20205;-71
2021/09/12 09:59:15;;;;;;;1999.90;999.90;;;;;;;25.51;32.84;95585.72;5031674;28;20256;-70
2021/09/12 10:01:44;;;;;;;1999.90;999.90;;;;;;;25.88;32.83;95585.97;5031566;28;20197;-69
2021/09/12 10:04:13;;;;;;;1999.90;999.90;;;;;;;26.24;31.76;95575.88;5031500;28;20204;-70
2021/09/12 10:06:42;;;;;;;1999.90;999.90;;;;;;;26.11;31.85;95577.44;5031133;28;20255;-70
2021/09/12 10:09:11;;;;;;;1999.90;999.90;;;;;;;25.97;30.48;95572.22;5031556;28;20201;-69
2021/09/12 10:11:40;;;;;;;1999.90;999.90;;;;;;;25.91;32.17;95566.53;5031311;28;20205;-69
2021/09/12 10:14:11;;;;;;;1999.90;999.90;;;;;;;26.06;32.45;95575.19;5031278;28;20252;-70
2021/09/12 10:16:39;;;;;;;1999.90;999.90;;;;;;;25.97;32.95;95566.88;5031257;28;20565;-71
2021/09/12 10:19:06;;;;;;;1999.90;999.90;;;;;;;26.23;31.58;95570.94;5031453;28;20224;-70
2021/09/12 10:21:34;;;;;;;1999.90;999.90;;;;;;;26.35;32.03;95565.16;5031076;28;20202;-70
2021/09/12 10:24:04;;;;;;;1999.90;999.90;;;;;;;26.44;30.76;95563.53;5031583;28;20637;-70
2021/09/12 10:26:33;;;;;;;1999.90;999.90;;;;;;;26.26;30.94;95562.91;5031027;28;20201;-71
2021/09/12 10:29:00;;;;;;;1999.90;999.90;;;;;;;26.35;32.79;95554.47;5030758;28;20197;-70
2021/09/12 10:31:50;;;;;;;1999.90;999.90;;;;;;;26.58;32.69;95552.00;5031188;28;20289;-70
2021/09/12 10:34:17;;;;;;;1999.90;999.90;;;;;;;26.49;32.40;95543.69;5030704;28;20206;-70
2021/09/12 10:36:45;;;;;;;1999.90;999.90;;;;;;;26.71;31.12;95555.66;5030272;28;20210;-70
2021/09/12 10:39:32;;;;;;;1999.90;999.90;;;;;;;26.52;32.15;95542.91;5031246;28;20224;-70
2021/09/12 10:42:18;;;;;;;1999.90;999.90;;;;;;;26.58;32.33;95543.22;5030929;28;20235;-71
2021/09/12 10:44:46;;;;;;;1999.90;999.90;;;;;;;26.72;30.70;95541.19;5030890;28;20208;-70
2021/09/12 10:47:15;;;;;;;1999.90;999.90;;;;;;;26.53;31.65;95541.75;5030781;28;20241;-70
2021/09/12 10:49:42;;;;;;;1999.90;999.90;;;;;;;26.69;31.51;95536.66;5030428;28;20205;-70
2021/09/12 10:52:10;;;;;;;1999.90;999.90;;;;;;;26.70;31.48;95535.47;5030712;28;20209;-70
2021/09/12 10:55:09;;;;;;;1999.90;999.90;;;;;;;26.66;29.96;95536.66;5030483;28;20222;-70
2021/09/12 10:57:37;;;;;;;1999.90;999.90;;;;;;;26.82;29.31;95534.22;5030867;28;20709;-70
2021/09/12 11:00:07;;;;;;;1999.90;999.90;;;;;;;26.95;31.16;95532.59;5030561;28;20216;-72
2021/09/12 11:02:42;;;;;;;1999.90;999.90;;;;;;;27.27;30.03;95532.25;5030295;28;20205;-71